Skelton, AK

1:30 PM AKDT on September 16, 2014 (GMT -0800)
Eureka | Change Station
CLOSE
Current Station
Airport
Location: Eureka,
Elevation: 3287 ft
Nearby Weather Stations

Elev 3287 ft 61.93 °N, 147.17 °W | Updated 14 minutes ago

Clear
Clear
48 °F
Feels Like 48 °F
N
0
Wind Variable Wind from North

Today
High -- | Low -- °F
--% Chance of Precip.
Yesterday
High -- | Low -- °F
Precip. -- in
7:17 AM 8:07 PM
Last Quarter, 42% visible
Pressure 29.73 in
Visibility 10.0 miles
Clouds Clear
Dew Point 34 °F
Humidity 58%
Rainfall 0.00 in
Snow Depth 0 in , 1 in , 0 in
UV 3 out of 12
Pollen Not available.
Air Quality Not available.
Flu Activity Not available.
METAR PAZK 162116Z AUTO 00000KT 10SM CLR 09/01 A2973 RMK AO1

More Conditions Fewer Conditions

Pressure 29.73 in
Visibility 10.0 miles
Clouds Clear
Dew Point 34 °F
Humidity 58%
Rainfall 0.00 in
Snow Depth 0 in , 1 in , 0 in
UV 3 out of 12
Pollen Not available.
Air Quality Not available.
Flu Activity Not available.
METAR PAZK 162116Z AUTO 00000KT 10SM CLR 09/01 A2973 RMK AO1

More Conditions Fewer Conditions

10-Day Weather Forecast

Almanac

Astronomy

Sep. 16, 2014 Rise Set
Actual Time 7:17 AM AKDT 8:07 PM AKDT
Civil Twilight 6:32 AM AKDT 8:52 PM AKDT
Nautical Twilight 5:36 AM AKDT 9:47 PM AKDT
Astronomical Twilight 4:32 AM AKDT 10:51 PM AKDT
Moon No Moon Rise 4:58 PM AKDT
Length of Visible Light 14h 20m
Length of Day
12h 50m
Tomorrow will be 5m 51s shorter.
Last Quarter, 42% of the Moon is Illuminated
Today
Last Quarter
Sep 24
New
Oct 1
First Quarter
Oct 8
Full
Oct 15
Last Quarter

Today's Extremes

State Highs State Lows

Community

WunderPhotos

Upload Photos

1,753,895 photos uploaded!

Nearby

Snow Depth

Station Depth Elevation
Port Graham 0 in 300 ft
Eagle Summit 1 in 3650 ft
Long Lake 0 in 820 ft
Granite Creek 0 in 1240 ft
Munson Ridge 1 in 3100 ft

Earthquake Activity

City Distance Mag. Time & Date
No recent earthquake activity has been reported nearby.
Minimum magnitude displayed is 2.5.

Coastal Water Temperatures

Place Temperature
No Stations Reporting

Nearby Weather Stations